map of YGL home
YGL - Airport
Location
City:  Radisson, Québec, Canada
Name:La Grande Rivière Airport
ICAO:CYGL
IATA:YGL

Details
Type:Airport (Airfield)
Use:Public/Civil
Latitude:53°37'31"N (53.625278)
Longitude:77°42'15"W (-77.704166)
Elevation:640 ft (195 m)
Variation:14.99°W (WMM2015v2 magnetic declination)
0.17° annual change
Runways:1
Longest:6487 ft (1977 m), paved

Time
Time Zone:UTC-5 (DST-4)
Local Time:

Weather
METAR:CYGL 041412Z 24006KT 15SM BKN004 OVC240 M28/M32 A3006 RMK SF6CI2 SLP209
TAF:CYGL 041139Z 0412/0512 31005KT P6SM SKC
TEMPO 0412/0416 5SM IC
FM041600 28008KT P6SM SCT030
TEMPO 0416/0512 5SM -SN BKN020
BECMG 0500/0502 02006KT
RMK NXT FCST BY 041800Z

Related Locations
Nearby:
Farthest:YWKS: 11474 mi / 18466 km
Wilkins Runway (Casey), Upper Peterson Glacier, AQ

Find:

   beyond  
but within

Other Information
Maps:
NOTAMs:
Links:
Sources:

  
  • flag of Canada
  • flag of Québec
  

Airport Diagram

Airport diagram for YGL

Airport diagram PDF

Sectional Chart

Flight Planning
at skyvector.com

Satellite Image

Google Maps Satellite view

 

Copyright © 2004-2019 Karl L. Swartz. All rights reserved.
The Great Circle Mapper name and logo are trademarks of the Great Circle Mapper.
All other trademarks mentioned herein belong to their respective owners.
Please see credits for attibutions and further copyright information.

  Follow gcmap on Facebook Follow gcmap on Twitter GCmap on LinkedIn

hCard Microformat

Geo Microformat